Time;durP1;ratioP1;P1;durP2;ratioP2;P2;SDS_P1;SDS_P2;PMS_P1;PMS_P2;Temp;Humidity;BMP_temperature;BMP_pressure;BME280_temperature;BME280_humidity;BME280_pressure;Samples;Min_cycle;Max_cycle;Signal;HPM_P1;HPM_P2
2021/04/30 00:00:46;;;;;;;12.90;8.57;;;;;;;34.71;20.40;94208.06;5137220;27;20043;-49
2021/04/30 00:03:13;;;;;;;13.90;8.60;;;;;;;34.46;20.77;94202.81;5137543;27;20468;-50
2021/04/30 00:05:40;;;;;;;13.20;8.50;;;;;;;34.62;20.35;94205.31;5137519;27;20043;-49
2021/04/30 00:08:07;;;;;;;12.20;8.63;;;;;;;33.77;21.55;94195.47;5117391;27;20058;-47
2021/04/30 00:10:34;;;;;;;11.75;8.15;;;;;;;33.78;21.49;94207.06;5116167;28;20047;-47
2021/04/30 00:13:02;;;;;;;14.55;9.05;;;;;;;33.59;22.01;94206.94;5126996;27;20039;-47
2021/04/30 00:15:29;;;;;;;11.48;7.90;;;;;;;34.31;20.80;94203.28;5096115;28;20080;-47
2021/04/30 00:17:56;;;;;;;11.70;8.50;;;;;;;33.95;21.34;94200.31;5096261;28;20066;-49
2021/04/30 00:20:23;;;;;;;14.93;8.43;;;;;;;33.76;21.47;94191.25;5098958;27;20047;-48
2021/04/30 00:22:51;;;;;;;11.30;7.65;;;;;;;33.84;21.43;94198.00;5136939;27;20473;-49
2021/04/30 00:25:18;;;;;;;15.38;7.50;;;;;;;34.24;20.64;94190.00;5136937;27;20476;-49
2021/04/30 00:27:45;;;;;;;12.60;7.90;;;;;;;34.32;20.80;94196.66;5137040;27;20052;-50
2021/04/30 00:30:14;;;;;;;11.15;7.65;;;;;;;33.96;21.22;94207.25;5136777;27;20058;-48
2021/04/30 00:32:41;;;;;;;13.40;7.55;;;;;;;33.55;21.80;94203.56;5095592;28;20050;-48
2021/04/30 00:35:09;;;;;;;15.90;7.88;;;;;;;34.31;20.58;94208.72;5095945;28;20505;-49
2021/04/30 00:37:38;;;;;;;13.13;7.80;;;;;;;33.84;21.20;94216.22;5109575;28;20047;-49
2021/04/30 00:40:08;;;;;;;13.95;7.55;;;;;;;33.62;21.27;94216.91;5116118;28;20044;-47
2021/04/30 00:42:35;;;;;;;11.98;7.50;;;;;;;33.47;21.69;94212.38;5127775;27;20046;-49
2021/04/30 00:45:05;;;;;;;10.02;7.10;;;;;;;33.94;20.92;94229.41;5110550;27;20040;-51
2021/04/30 00:47:35;;;;;;;12.68;7.80;;;;;;;33.49;21.34;94240.53;5095679;28;20370;-51
2021/04/30 00:50:05;;;;;;;13.23;7.20;;;;;;;34.17;20.61;94232.88;5095771;28;20044;-47
2021/04/30 00:52:32;;;;;;;13.25;7.82;;;;;;;33.50;21.78;94239.34;5132842;27;20043;-47
2021/04/30 00:55:11;;;;;;;11.20;7.45;;;;;;;34.03;20.82;94248.44;5136683;27;20039;-50
2021/04/30 00:57:40;;;;;;;13.43;7.97;;;;;;;34.08;20.97;94244.41;5136607;27;20054;-49
2021/04/30 01:00:09;;;;;;;9.85;6.70;;;;;;;33.65;21.36;94240.41;5136596;27;20035;-46
2021/04/30 01:02:38;;;;;;;14.82;7.97;;;;;;;33.54;21.44;94239.22;5135972;27;20052;-47
2021/04/30 01:05:10;;;;;;;10.02;7.55;;;;;;;34.02;21.07;94246.16;5136413;27;20047;-47
2021/04/30 01:07:37;;;;;;;9.63;7.22;;;;;;;33.76;21.53;94247.41;5121778;27;20058;-47
2021/04/30 01:10:05;;;;;;;10.52;7.30;;;;;;;33.88;21.34;94252.09;5115722;28;20043;-47
2021/04/30 01:12:34;;;;;;;11.35;7.07;;;;;;;33.03;22.22;94250.06;5109871;28;20043;-49
2021/04/30 01:15:01;;;;;;;8.65;6.95;;;;;;;34.74;20.28;94250.63;5095324;28;20044;-47
2021/04/30 01:17:30;;;;;;;14.45;7.88;;;;;;;33.57;21.74;94255.41;5095685;28;20043;-48
2021/04/30 01:20:00;;;;;;;10.50;7.57;;;;;;;34.35;20.83;94257.44;5095339;28;20044;-47
2021/04/30 01:22:37;;;;;;;10.80;7.38;;;;;;;34.27;21.09;94256.91;5129030;28;20082;-46
2021/04/30 01:25:16;;;;;;;9.93;7.40;;;;;;;34.11;21.28;94253.63;5136408;28;20047;-47
2021/04/30 01:27:44;;;;;;;10.40;7.40;;;;;;;34.11;21.22;94256.34;5136207;28;20047;-47
2021/04/30 01:30:19;;;;;;;9.98;7.50;;;;;;;34.01;21.45;94260.94;5136165;28;20054;-55
2021/04/30 01:32:46;;;;;;;11.30;7.68;;;;;;;33.94;21.33;94258.47;5136875;28;20487;-47
2021/04/30 01:35:22;;;;;;;8.32;6.97;;;;;;;34.48;20.76;94265.53;5137784;28;20061;-52
2021/04/30 01:37:50;;;;;;;11.50;7.50;;;;;;;33.69;21.71;94278.22;5135827;28;20046;-51
2021/04/30 01:40:26;;;;;;;11.23;7.53;;;;;;;33.97;21.37;94271.13;5135923;28;20046;-50
2021/04/30 01:43:06;;;;;;;13.90;7.93;;;;;;;33.52;21.62;94274.13;5115797;28;20048;-51
2021/04/30 01:45:38;;;;;;;10.70;6.47;;;;;;;34.23;21.23;94267.13;5119695;28;20039;-50
2021/04/30 01:48:15;;;;;;;10.05;7.45;;;;;;;34.47;20.89;94264.78;5119707;28;20500;-47
2021/04/30 01:50:43;;;;;;;10.68;7.45;;;;;;;33.38;22.04;94278.81;5114442;28;20043;-47
2021/04/30 01:53:15;;;;;;;10.32;6.97;;;;;;;33.63;21.37;94261.78;5118497;28;20047;-47
2021/04/30 01:55:43;;;;;;;9.98;7.57;;;;;;;32.87;22.28;94269.91;5119465;28;20051;-57
2021/04/30 01:58:11;;;;;;;7.90;6.70;;;;;;;32.56;22.70;94266.13;5119373;28;20048;-48
2021/04/30 02:00:40;;;;;;;12.18;8.30;;;;;;;32.96;22.58;94256.47;5119150;28;20323;-49
2021/04/30 02:03:07;;;;;;;11.00;7.15;;;;;;;33.31;22.09;94264.69;5118971;28;20047;-47
2021/04/30 02:05:34;;;;;;;12.95;7.38;;;;;;;32.77;22.77;94268.97;5119301;28;20047;-47
2021/04/30 02:08:21;;;;;;;10.43;7.60;;;;;;;33.25;21.74;94271.84;5119005;28;20054;-49
2021/04/30 02:10:53;;;;;;;11.10;7.30;;;;;;;32.99;22.03;94271.84;5110011;28;20043;-49
2021/04/30 02:13:21;;;;;;;11.85;8.15;;;;;;;33.13;22.48;94276.09;5118856;28;20051;-48
2021/04/30 02:15:50;;;;;;;11.50;7.32;;;;;;;32.92;22.36;94276.72;5119109;28;20051;-47
2021/04/30 02:18:23;;;;;;;12.23;7.65;;;;;;;33.23;21.92;94274.22;5119016;28;20055;-49
2021/04/30 02:20:51;;;;;;;10.35;7.38;;;;;;;33.36;21.93;94283.91;5118543;28;20051;-48
2021/04/30 02:23:19;;;;;;;9.52;6.63;;;;;;;32.58;22.60;94282.69;5117083;28;20060;-49
2021/04/30 02:25:46;;;;;;;9.40;6.82;;;;;;;32.89;22.62;94272.16;5098516;28;20048;-46
2021/04/30 02:28:13;;;;;;;11.68;7.40;;;;;;;33.38;21.67;94281.53;5098703;28;20109;-47
2021/04/30 02:30:41;;;;;;;10.25;6.88;;;;;;;33.18;22.04;94280.19;5098713;28;20059;-49
2021/04/30 02:33:09;;;;;;;10.35;7.18;;;;;;;32.41;22.58;94277.34;5118852;28;20055;-48
2021/04/30 02:35:43;;;;;;;10.05;7.07;;;;;;;32.67;22.80;94272.75;5118954;28;20047;-46
2021/04/30 02:38:12;;;;;;;10.68;7.63;;;;;;;33.59;21.54;94276.63;5137089;27;20043;-51
2021/04/30 02:40:53;;;;;;;11.30;8.35;;;;;;;33.52;21.88;94274.88;5092367;27;20826;-50
2021/04/30 02:43:21;;;;;;;10.45;7.13;;;;;;;33.72;21.37;94278.13;5092487;28;20443;-47
2021/04/30 02:45:52;;;;;;;11.80;6.93;;;;;;;33.77;21.07;94284.16;5092776;28;20051;-47
2021/04/30 02:48:32;;;;;;;9.43;7.07;;;;;;;33.08;22.08;94282.03;5092744;28;20455;-47
2021/04/30 02:51:01;;;;;;;9.23;6.53;;;;;;;33.51;21.34;94286.91;5092103;28;20044;-51
2021/04/30 02:53:28;;;;;;;9.63;6.65;;;;;;;33.79;20.94;94282.53;5092615;28;20059;-46
2021/04/30 02:55:55;;;;;;;8.13;6.47;;;;;;;33.73;21.08;94285.03;5091895;28;20048;-57
2021/04/30 02:58:23;;;;;;;9.75;6.60;;;;;;;33.13;22.03;94302.41;5092351;28;20366;-51
2021/04/30 03:00:50;;;;;;;9.30;7.15;;;;;;;33.94;21.23;94277.44;5092449;28;20076;-48
2021/04/30 03:03:17;;;;;;;9.60;7.32;;;;;;;32.41;22.84;94284.69;5092286;28;20047;-46
2021/04/30 03:05:44;;;;;;;10.45;6.50;;;;;;;33.98;21.13;94300.53;5092336;28;20448;-47
2021/04/30 03:08:12;;;;;;;9.85;6.78;;;;;;;32.92;21.93;94306.50;5091824;28;20044;-49
2021/04/30 03:10:39;;;;;;;12.70;7.47;;;;;;;32.95;21.97;94309.09;5087088;28;20049;-47
2021/04/30 03:13:06;;;;;;;11.23;7.40;;;;;;;33.62;21.28;94311.75;5087210;28;20489;-47
2021/04/30 03:15:33;;;;;;;8.35;6.95;;;;;;;32.44;22.50;94311.66;5086274;28;20048;-48
2021/04/30 03:18:00;;;;;;;10.48;7.68;;;;;;;33.08;22.04;94320.72;5087362;28;20044;-48
2021/04/30 03:20:27;;;;;;;7.78;6.82;;;;;;;33.08;22.06;94318.00;5071579;28;20363;-47
2021/04/30 03:22:54;;;;;;;10.38;6.88;;;;;;;33.58;21.29;94300.25;5071822;28;20060;-51
2021/04/30 03:25:22;;;;;;;8.20;6.57;;;;;;;32.54;22.50;94309.09;5071864;28;20044;-49
2021/04/30 03:27:49;;;;;;;9.40;7.15;;;;;;;32.17;22.88;94316.59;5085321;28;20044;-47
2021/04/30 03:30:17;;;;;;;10.40;6.90;;;;;;;33.08;22.08;94323.41;5091866;28;20036;-48
2021/04/30 03:32:44;;;;;;;8.32;6.70;;;;;;;31.86;23.54;94319.69;5091976;28;20048;-47
2021/04/30 03:35:16;;;;;;;11.32;7.20;;;;;;;33.60;20.96;94311.44;5091786;28;20358;-53
2021/04/30 03:37:43;;;;;;;9.13;7.32;;;;;;;33.01;21.58;94318.19;5090539;28;20056;-47
2021/04/30 03:40:11;;;;;;;10.38;7.40;;;;;;;32.62;22.43;94322.00;5091332;28;20060;-47
2021/04/30 03:42:38;;;;;;;11.18;7.22;;;;;;;31.84;23.41;94322.06;5091482;28;20044;-47
2021/04/30 03:45:06;;;;;;;10.73;7.10;;;;;;;33.52;21.51;94326.38;5091632;28;20054;-50
2021/04/30 03:47:33;;;;;;;9.35;6.55;;;;;;;32.51;22.33;94332.34;5091313;28;20056;-48
2021/04/30 03:50:01;;;;;;;12.65;7.97;;;;;;;34.02;20.86;94325.56;5086669;28;20489;-48
2021/04/30 03:52:29;;;;;;;10.23;7.65;;;;;;;32.57;22.60;94338.00;5057712;28;20044;-47
2021/04/30 03:54:56;;;;;;;10.13;7.35;;;;;;;32.27;22.60;94321.00;5057890;28;20051;-47
2021/04/30 03:57:23;;;;;;;16.13;9.50;;;;;;;33.24;21.41;94348.88;5058046;28;20083;-49
2021/04/30 03:59:50;;;;;;;15.43;9.65;;;;;;;31.80;23.32;94326.78;5076412;28;20059;-49
2021/04/30 04:02:17;;;;;;;14.07;9.88;;;;;;;32.76;22.20;94342.47;5077909;28;20043;-46
2021/04/30 04:04:44;;;;;;;12.70;9.57;;;;;;;31.04;24.34;94349.66;5077866;28;20048;-46
2021/04/30 04:07:11;;;;;;;12.00;9.50;;;;;;;32.28;22.76;94351.53;5077477;28;20048;-47
2021/04/30 04:09:38;;;;;;;14.25;8.65;;;;;;;33.06;21.83;94357.53;5077105;28;20056;-56
2021/04/30 04:12:09;;;;;;;12.68;8.32;;;;;;;32.98;22.29;94367.03;5077383;28;20045;-49
2021/04/30 04:14:43;;;;;;;11.95;8.00;;;;;;;33.02;21.97;94379.28;5077606;28;20048;-47
2021/04/30 04:17:11;;;;;;;10.13;8.10;;;;;;;32.85;22.55;94382.50;5076551;28;20056;-49
2021/04/30 04:19:38;;;;;;;9.25;7.55;;;;;;;34.15;20.69;94393.34;5075678;28;20119;-51
2021/04/30 04:22:05;;;;;;;15.35;7.85;;;;;;;34.69;20.23;94392.34;5057507;28;20049;-47
2021/04/30 04:24:33;;;;;;;12.20;8.05;;;;;;;34.90;20.10;94407.91;5057441;28;20076;-48
2021/04/30 04:27:00;;;;;;;9.70;6.95;;;;;;;33.88;21.24;94420.94;5057296;28;20056;-54
2021/04/30 04:29:27;;;;;;;11.07;7.57;;;;;;;33.39;21.88;94428.56;5071797;28;20443;-53
2021/04/30 04:31:54;;;;;;;10.43;7.03;;;;;;;34.16;21.05;94413.09;5077506;28;20052;-46
2021/04/30 04:34:21;;;;;;;9.10;7.10;;;;;;;35.04;19.89;94414.03;5075489;28;20378;-48
2021/04/30 04:36:48;;;;;;;10.68;7.68;;;;;;;34.66;20.27;94423.09;5071691;28;20079;-46
2021/04/30 04:39:15;;;;;;;9.00;6.90;;;;;;;33.75;21.24;94411.25;5069327;28;20447;-48
2021/04/30 04:41:42;;;;;;;12.18;6.78;;;;;;;33.35;21.97;94419.78;5073865;28;20051;-48
2021/04/30 04:44:09;;;;;;;13.95;6.60;;;;;;;33.08;22.23;94425.56;5076915;28;20353;-48
2021/04/30 04:46:36;;;;;;;10.60;6.45;;;;;;;33.72;21.50;94435.31;5066964;28;20029;-47
2021/04/30 04:49:04;;;;;;;8.57;7.45;;;;;;;33.70;21.77;94439.66;5067248;28;20049;-47
2021/04/30 04:51:32;;;;;;;10.60;7.05;;;;;;;33.08;22.14;94442.56;5075298;28;20044;-48
2021/04/30 04:54:00;;;;;;;12.02;7.90;;;;;;;34.82;20.51;94452.75;5076547;28;20044;-49
2021/04/30 04:56:27;;;;;;;11.23;7.70;;;;;;;33.91;21.42;94435.56;5075594;28;20053;-46
2021/04/30 04:58:55;;;;;;;13.05;7.60;;;;;;;34.43;20.65;94437.81;5076258;28;20048;-46
2021/04/30 05:01:23;;;;;;;10.32;7.63;;;;;;;33.46;21.78;94417.53;5068632;28;20056;-46
2021/04/30 05:03:50;;;;;;;11.27;7.82;;;;;;;32.53;23.15;94429.28;5055760;28;20064;-45
2021/04/30 05:06:18;;;;;;;10.60;8.10;;;;;;;32.48;23.57;94420.50;5059163;28;20367;-48
2021/04/30 05:08:45;;;;;;;12.00;7.60;;;;;;;32.81;23.22;94423.19;5076152;28;20076;-47
2021/04/30 05:11:12;;;;;;;11.98;7.55;;;;;;;33.96;22.19;94422.22;5076518;28;20040;-49
2021/04/30 05:13:39;;;;;;;14.57;7.45;;;;;;;34.48;21.20;94420.19;5070032;28;20059;-49
2021/04/30 05:16:06;;;;;;;11.65;7.65;;;;;;;34.38;20.93;94407.75;5056444;28;20049;-49
2021/04/30 05:18:34;;;;;;;16.77;7.35;;;;;;;34.59;20.61;94401.59;5061918;28;20051;-48
2021/04/30 05:21:01;;;;;;;9.70;6.80;;;;;;;33.81;22.02;94409.50;5075940;28;20048;-51
2021/04/30 05:23:28;;;;;;;14.27;6.80;;;;;;;35.12;20.23;94404.41;5075239;28;20052;-49
2021/04/30 05:25:56;;;;;;;11.25;6.68;;;;;;;34.64;21.11;94409.19;5076248;28;20474;-50
2021/04/30 05:28:23;;;;;;;11.40;6.50;;;;;;;35.48;20.71;94426.41;5075719;28;20071;-47
2021/04/30 05:30:50;;;;;;;15.73;7.60;;;;;;;35.65;19.95;94420.72;5076270;28;20044;-47
2021/04/30 05:33:17;;;;;;;13.88;6.97;;;;;;;35.37;19.83;94420.59;5075971;28;20045;-48
2021/04/30 05:35:44;;;;;;;14.00;7.95;;;;;;;36.18;19.09;94420.66;5076036;28;20044;-49
2021/04/30 05:38:11;;;;;;;15.57;8.43;;;;;;;36.01;19.37;94420.91;5075461;28;20103;-48
2021/04/30 05:40:38;;;;;;;14.75;8.27;;;;;;;34.97;21.23;94427.88;5074737;28;20063;-47
2021/04/30 05:43:06;;;;;;;16.00;8.90;;;;;;;36.00;19.10;94427.56;5076602;28;20051;-49
2021/04/30 05:45:33;;;;;;;13.40;8.73;;;;;;;35.79;19.23;94428.34;5073485;28;20045;-49
2021/04/30 05:48:00;;;;;;;13.32;7.93;;;;;;;35.67;19.70;94423.78;5056091;28;20052;-54
2021/04/30 05:50:27;;;;;;;12.55;7.57;;;;;;;35.30;19.85;94431.69;5075290;28;20040;-47
2021/04/30 05:52:54;;;;;;;14.55;8.38;;;;;;;35.66;19.65;94430.44;5075655;28;20048;-51
2021/04/30 05:55:22;;;;;;;12.60;7.95;;;;;;;35.94;19.42;94440.25;5075697;28;20045;-49
2021/04/30 05:57:49;;;;;;;13.88;8.73;;;;;;;35.71;19.92;94435.28;5075640;28;20366;-47
2021/04/30 06:00:16;;;;;;;14.60;8.73;;;;;;;36.23;19.44;94434.41;5075120;28;20049;-47
2021/04/30 06:02:43;;;;;;;14.90;9.00;;;;;;;36.23;19.76;94434.41;5075533;28;20044;-52
2021/04/30 06:05:11;;;;;;;12.15;8.15;;;;;;;36.08;20.10;94434.22;5061421;28;20044;-57
2021/04/30 06:07:38;;;;;;;15.40;8.05;;;;;;;36.40;20.00;94429.47;5069256;28;20351;-47
2021/04/30 06:10:06;;;;;;;16.58;7.93;;;;;;;36.18;20.15;94428.81;5075106;28;20048;-48
2021/04/30 06:12:33;;;;;;;12.60;7.63;;;;;;;36.80;19.50;94425.91;5075465;28;20052;-51
2021/04/30 06:15:00;;;;;;;14.80;7.82;;;;;;;36.96;18.86;94428.34;5066711;28;20045;-53
2021/04/30 06:17:29;;;;;;;15.80;7.93;;;;;;;36.95;18.58;94429.53;5055331;28;20045;-47
2021/04/30 06:19:56;;;;;;;11.18;7.78;;;;;;;37.07;18.98;94431.34;5069933;28;20071;-48
2021/04/30 06:22:30;;;;;;;14.35;7.93;;;;;;;37.22;19.01;94434.97;5068402;28;20443;-47
2021/04/30 06:24:58;;;;;;;12.95;8.10;;;;;;;37.37;18.86;94439.81;5055086;28;20049;-51
2021/04/30 06:27:25;;;;;;;13.90;8.48;;;;;;;37.77;18.11;94445.78;5055315;28;20060;-48
2021/04/30 06:29:52;;;;;;;16.73;8.55;;;;;;;37.77;18.23;94440.34;5069389;28;20446;-54
2021/04/30 06:32:19;;;;;;;13.95;8.07;;;;;;;37.88;18.22;94439.81;5075254;28;20049;-53
2021/04/30 06:34:48;;;;;;;11.88;6.90;;;;;;;38.00;17.75;94443.56;5075191;28;20052;-53
2021/04/30 06:37:16;;;;;;;13.40;7.47;;;;;;;38.21;17.48;94439.84;5074175;28;20443;-48
2021/04/30 06:39:43;;;;;;;15.68;8.55;;;;;;;38.40;17.80;94443.97;5066598;28;20355;-49
2021/04/30 06:42:10;;;;;;;11.38;7.60;;;;;;;38.45;17.97;94448.78;5075133;28;20367;-50
2021/04/30 06:44:38;;;;;;;18.33;8.82;;;;;;;38.45;17.21;94454.25;5075048;28;20055;-46
2021/04/30 06:47:05;;;;;;;14.85;8.48;;;;;;;38.75;17.41;94457.13;5075034;28;20055;-48
2021/04/30 06:49:32;;;;;;;13.15;9.65;;;;;;;37.95;18.33;94455.84;5074752;28;20049;-53
2021/04/30 06:51:59;;;;;;;14.02;8.73;;;;;;;38.49;17.30;94454.84;5073769;28;20170;-48
2021/04/30 06:54:26;;;;;;;13.90;7.80;;;;;;;38.95;16.39;94468.19;5074980;28;20040;-51
2021/04/30 06:56:53;;;;;;;16.50;7.57;;;;;;;39.17;16.96;94452.25;5074601;28;20382;-51
2021/04/30 06:59:21;;;;;;;16.05;7.30;;;;;;;39.02;16.47;94454.16;5074846;28;20044;-51
2021/04/30 07:01:48;;;;;;;13.40;5.07;;;;;;;39.21;15.33;94451.31;5075237;28;20098;-49
2021/04/30 07:04:18;;;;;;;13.20;4.32;;;;;;;39.40;15.04;94458.13;5075000;28;20087;-49
2021/04/30 07:06:45;;;;;;;8.68;3.83;;;;;;;39.09;15.55;94442.91;5062146;28;20044;-49
2021/04/30 07:09:13;;;;;;;9.40;4.03;;;;;;;39.62;14.96;94442.13;5074248;28;20052;-49
2021/04/30 07:11:40;;;;;;;9.35;4.20;;;;;;;39.70;15.25;94443.22;5074875;28;20048;-49
2021/04/30 07:14:07;;;;;;;9.38;4.90;;;;;;;39.40;15.42;94452.66;5074780;28;20048;-51
2021/04/30 07:16:34;;;;;;;9.32;5.15;;;;;;;39.61;15.09;94445.31;5074869;28;20044;-52
2021/04/30 07:19:01;;;;;;;15.10;5.32;;;;;;;39.69;15.93;94441.72;5074302;28;20044;-54
2021/04/30 07:21:28;;;;;;;9.98;4.70;;;;;;;39.62;15.67;94446.81;5074350;28;20044;-48
2021/04/30 07:23:55;;;;;;;14.20;4.82;;;;;;;39.89;15.04;94443.78;5074808;28;20057;-48
2021/04/30 07:26:22;;;;;;;10.98;4.25;;;;;;;40.03;14.61;94447.72;5076476;28;20044;-49
2021/04/30 07:28:49;;;;;;;10.40;4.28;;;;;;;40.09;15.02;94445.09;5077040;28;20079;-53
2021/04/30 07:31:17;;;;;;;6.88;3.78;;;;;;;39.38;14.94;94439.44;5078269;28;20059;-50
2021/04/30 07:33:47;;;;;;;10.88;3.10;;;;;;;40.04;13.27;94439.03;5069448;28;20044;-52
2021/04/30 07:36:15;;;;;;;9.65;3.38;;;;;;;40.15;13.03;94443.94;5060439;28;20363;-48
2021/04/30 07:38:43;;;;;;;7.20;2.72;;;;;;;40.83;12.51;94440.09;5076437;28;20052;-49
2021/04/30 07:41:11;;;;;;;10.85;3.20;;;;;;;40.38;14.09;94449.75;5078331;28;20435;-51
2021/04/30 07:43:38;;;;;;;8.10;3.47;;;;;;;40.52;13.83;94437.97;5078479;28;20040;-48
2021/04/30 07:46:05;;;;;;;7.88;3.47;;;;;;;40.83;13.31;94440.09;5078512;28;20048;-47
2021/04/30 07:48:32;;;;;;;7.93;2.72;;;;;;;40.04;12.35;94439.03;5072839;28;20052;-48
2021/04/30 07:51:01;;;;;;;5.22;2.90;;;;;;;40.55;12.45;94426.78;5065796;28;20048;-49
2021/04/30 07:53:30;;;;;;;7.28;2.60;;;;;;;40.72;12.63;94418.78;5077938;28;20443;-51
2021/04/30 07:55:57;;;;;;;6.55;2.67;;;;;;;40.83;12.82;94426.41;5078021;28;20052;-48
2021/04/30 07:58:28;;;;;;;8.48;2.53;;;;;;;40.82;12.49;94428.38;5077580;28;20052;-50
2021/04/30 08:00:56;;;;;;;9.48;2.25;;;;;;;40.64;12.84;94423.19;5060032;28;20513;-49
2021/04/30 08:03:24;;;;;;;7.68;2.55;;;;;;;40.52;12.12;94418.78;5057885;28;20375;-50
2021/04/30 08:05:52;;;;;;;6.43;2.30;;;;;;;40.48;10.92;94421.00;5056741;28;20083;-48
2021/04/30 08:08:19;;;;;;;8.80;2.58;;;;;;;40.86;10.50;94420.72;5076724;28;20044;-47
2021/04/30 08:10:47;;;;;;;6.10;2.28;;;;;;;40.27;11.03;94418.19;5077726;28;20048;-50
2021/04/30 08:13:14;;;;;;;6.82;1.98;;;;;;;41.38;10.61;94407.06;5076587;28;20041;-48
2021/04/30 08:15:41;;;;;;;9.23;2.88;;;;;;;41.45;10.56;94409.34;5069772;28;20048;-50
2021/04/30 08:18:08;;;;;;;10.13;2.42;;;;;;;40.95;11.06;94409.59;5075780;28;20465;-49
2021/04/30 08:20:36;;;;;;;7.15;2.13;;;;;;;40.94;10.35;94410.84;5077334;28;20048;-48
2021/04/30 08:23:04;;;;;;;7.07;2.25;;;;;;;41.68;10.54;94417.81;5077522;28;20048;-52
2021/04/30 08:25:31;;;;;;;6.65;2.88;;;;;;;40.54;13.13;94408.09;5061825;28;20044;-50
2021/04/30 08:27:58;;;;;;;10.85;4.05;;;;;;;41.13;13.46;94407.78;5057508;28;20049;-50
2021/04/30 08:30:26;;;;;;;9.38;3.90;;;;;;;40.52;13.32;94411.31;5077268;28;20040;-56
2021/04/30 08:32:53;;;;;;;10.00;4.75;;;;;;;41.10;13.11;94397.78;5077383;28;20451;-51
2021/04/30 08:35:22;;;;;;;7.28;3.88;;;;;;;41.44;13.07;94394.13;5058916;28;20048;-54
2021/04/30 08:37:49;;;;;;;9.50;4.00;;;;;;;41.23;13.46;94395.44;5059641;28;20063;-52
2021/04/30 08:40:16;;;;;;;11.40;4.00;;;;;;;41.52;13.97;94395.19;5064803;28;20056;-50
2021/04/30 08:42:43;;;;;;;11.95;3.95;;;;;;;40.79;12.63;94396.44;5066600;28;20127;-49
2021/04/30 08:45:15;;;;;;;9.88;3.58;;;;;;;41.62;12.87;94392.25;5074242;28;20455;-51
2021/04/30 08:47:44;;;;;;;7.43;3.45;;;;;;;41.21;13.78;94389.66;5076297;28;20474;-50
2021/04/30 08:50:12;;;;;;;10.32;3.40;;;;;;;41.79;12.96;94390.44;5074374;28;20047;-48
2021/04/30 08:52:39;;;;;;;9.27;4.18;;;;;;;40.55;13.21;94390.44;5076438;28;20048;-49
2021/04/30 08:55:11;;;;;;;10.02;3.92;;;;;;;41.42;12.75;94380.16;5075314;28;20348;-53
2021/04/30 08:57:39;;;;;;;9.13;3.20;;;;;;;41.38;13.47;94390.59;5075345;28;20059;-50
2021/04/30 09:00:07;;;;;;;8.77;3.22;;;;;;;41.22;13.32;94383.72;5075996;28;20465;-60
2021/04/30 09:02:38;;;;;;;9.25;3.70;;;;;;;41.80;12.19;94381.69;5076774;28;20127;-56
2021/04/30 09:05:11;;;;;;;8.73;3.75;;;;;;;41.68;13.23;94371.91;5075306;28;20048;-53
2021/04/30 09:07:42;;;;;;;10.05;4.07;;;;;;;41.32;12.73;94376.06;5069422;28;20047;-55
2021/04/30 09:10:12;;;;;;;;;;;;;;;40.91;12.79;94373.44;5072850;28;20056;-56
2021/04/30 09:12:40;;;;;;;11.68;3.50;;;;;;;41.80;12.07;94378.97;5071875;28;19912;-53
2021/04/30 09:15:21;;;;;;;6.95;2.40;;;;;;;41.62;11.57;94386.78;5056329;28;20053;-46
2021/04/30 09:17:48;;;;;;;;;;;;;;;41.74;9.65;94363.72;5056916;28;20371;-49
2021/04/30 09:20:15;;;;;;;4.68;1.75;;;;;;;41.28;9.77;94367.31;5064009;28;19913;-50
2021/04/30 09:22:44;;;;;;;7.63;2.22;;;;;;;41.64;9.45;94373.31;5056380;28;20049;-50
2021/04/30 09:25:12;;;;;;;8.65;2.00;;;;;;;41.33;9.40;94383.06;5056185;28;20045;-52
2021/04/30 09:27:54;;;;;;;6.70;1.52;;;;;;;41.58;9.15;94368.56;5056309;28;20056;-48
2021/04/30 09:30:32;;;;;;;6.22;2.28;;;;;;;41.38;9.56;94374.16;5060812;28;20061;-51
2021/04/30 09:33:18;;;;;;;7.28;2.28;;;;;;;41.17;9.53;94364.47;5056091;28;20049;-53
2021/04/30 09:35:53;;;;;;;7.75;2.20;;;;;;;42.08;9.93;94356.44;5056012;28;20047;-50
2021/04/30 09:38:22;;;;;;;6.50;2.13;;;;;;;42.23;9.91;94359.78;5061347;28;20053;-53
2021/04/30 09:40:52;;;;;;;7.68;2.35;;;;;;;42.10;9.49;94360.19;5071688;28;20049;-51
2021/04/30 09:43:19;;;;;;;10.32;2.65;;;;;;;42.28;12.22;94358.28;5055828;28;20049;-54
2021/04/30 09:45:48;;;;;;;8.70;3.22;;;;;;;41.81;11.84;94360.50;5055879;28;20059;-52
2021/04/30 09:48:16;;;;;;;10.85;3.38;;;;;;;41.49;12.54;94346.03;5055279;28;20045;-48
2021/04/30 09:50:44;;;;;;;11.52;3.05;;;;;;;40.93;12.49;94356.53;5075810;28;20041;-50
2021/04/30 09:53:17;;;;;;;8.90;2.75;;;;;;;40.87;11.65;94353.72;5057957;28;20052;-50
2021/04/30 09:55:49;;;;;;;13.90;3.70;;;;;;;41.13;11.97;94352.97;5055911;28;20459;-48
2021/04/30 09:58:24;;;;;;;8.13;3.08;;;;;;;40.86;12.21;94351.44;5055486;28;20045;-51
2021/04/30 10:00:54;;;;;;;7.57;2.88;;;;;;;41.21;11.77;94343.81;5064817;28;20055;-49
2021/04/30 10:03:25;;;;;;;9.68;3.47;;;;;;;40.58;12.35;94331.97;5055539;28;20044;-47
2021/04/30 10:06:06;;;;;;;7.10;3.65;;;;;;;40.71;12.46;94339.81;5055582;28;20048;-50
2021/04/30 10:08:34;;;;;;;9.48;3.30;;;;;;;41.09;11.96;94341.44;5072138;28;20056;-48
2021/04/30 10:11:02;;;;;;;10.00;3.25;;;;;;;42.34;11.61;94335.09;5075509;28;20051;-55
2021/04/30 10:13:30;;;;;;;12.50;3.40;;;;;;;41.25;11.86;94340.88;5075380;28;20058;-49
2021/04/30 10:15:57;;;;;;;8.02;2.90;;;;;;;41.28;12.07;94331.69;5075451;28;20067;-50
2021/04/30 10:18:26;;;;;;;8.15;2.97;;;;;;;41.33;11.71;94317.25;5067263;28;20044;-50
2021/04/30 10:20:53;;;;;;;5.95;3.00;;;;;;;41.11;11.67;94317.78;5075097;28;20044;-49
2021/04/30 10:23:22;;;;;;;8.98;3.15;;;;;;;41.01;12.78;94318.47;5075354;28;20049;-52
2021/04/30 10:25:51;;;;;;;7.80;3.40;;;;;;;41.26;11.56;94317.69;5075322;28;20052;-50
2021/04/30 10:28:25;;;;;;;8.40;2.70;;;;;;;41.24;12.04;94309.22;5074661;28;20063;-48
2021/04/30 10:31:06;;;;;;;6.50;3.28;;;;;;;41.37;12.27;94301.31;5056555;28;20047;-50
2021/04/30 10:33:50;;;;;;;6.82;3.10;;;;;;;41.58;12.96;94299.97;5054162;28;20383;-49
2021/04/30 10:36:23;;;;;;;7.60;3.10;;;;;;;41.95;11.95;94307.44;5056818;28;20060;-49
2021/04/30 10:38:54;;;;;;;6.65;2.72;;;;;;;41.56;11.82;94298.97;5074758;28;20061;-50
2021/04/30 10:41:27;;;;;;;8.90;3.17;;;;;;;41.40;11.96;94288.66;5057946;28;20047;-52
2021/04/30 10:44:28;;;;;;;8.60;3.00;;;;;;;41.34;11.44;94277.63;5055102;28;20045;-49
2021/04/30 10:47:16;;;;;;;6.90;3.08;;;;;;;41.76;10.93;94293.38;5057694;28;20410;-53
2021/04/30 10:49:45;;;;;;;6.90;2.45;;;;;;;41.14;11.35;94296.91;5071981;28;20040;-50
2021/04/30 10:52:24;;;;;;;7.50;2.35;;;;;;;41.82;9.98;94282.41;5062374;28;20045;-50
2021/04/30 10:55:07;;;;;;;5.50;1.70;;;;;;;42.26;9.39;94281.88;5073519;28;20386;-52
2021/04/30 10:57:55;;;;;;;5.80;2.08;;;;;;;40.99;9.19;94275.09;5055421;28;20053;-55
2021/04/30 11:00:28;;;;;;;6.25;1.80;;;;;;;40.85;9.37;94262.25;5061330;28;20078;-52
2021/04/30 11:03:14;;;;;;;8.88;2.70;;;;;;;41.91;9.71;94260.28;5072346;28;20359;-53
2021/04/30 11:05:57;;;;;;;6.05;1.90;;;;;;;41.52;9.77;94269.00;5072852;28;20051;-53
2021/04/30 11:08:46;;;;;;;5.90;1.98;;;;;;;41.90;9.14;94242.28;5064561;28;20036;-50
2021/04/30 11:11:14;;;;;;;5.07;1.63;;;;;;;42.15;8.97;94230.41;5078758;28;20048;-50
2021/04/30 11:13:49;;;;;;;7.05;1.75;;;;;;;41.03;9.18;94237.25;5078764;28;20045;-51
2021/04/30 11:16:39;;;;;;;7.30;2.35;;;;;;;42.17;10.25;94238.94;5077607;28;20051;-49
2021/04/30 11:19:06;;;;;;;8.85;2.33;;;;;;;41.22;9.75;94248.59;5077243;28;20052;-45
2021/04/30 11:22:12;;;;;;;7.40;2.10;;;;;;;41.61;8.97;94251.59;5078533;28;20111;-46
2021/04/30 11:24:51;;;;;;;7.47;1.95;;;;;;;41.25;9.11;94244.91;5054363;28;20447;-44
2021/04/30 11:27:18;;;;;;;6.15;2.00;;;;;;;41.79;9.07;94231.28;5058505;28;20059;-45
2021/04/30 11:29:45;;;;;;;5.28;1.80;;;;;;;41.11;8.83;94234.81;5064005;28;20060;-44
2021/04/30 11:32:23;;;;;;;7.93;2.10;;;;;;;42.10;8.97;94250.38;5058418;28;20041;-46
2021/04/30 11:34:59;;;;;;;7.80;2.08;;;;;;;41.04;9.52;94241.50;5058417;28;20055;-45
2021/04/30 11:37:28;;;;;;;5.95;1.65;;;;;;;41.88;8.77;94242.03;5070389;28;20435;-46
2021/04/30 11:39:57;;;;;;;8.63;2.55;;;;;;;41.04;9.36;94229.78;5077807;28;20057;-46